sensor_id;sensor_type;location;lat;lon;timestamp;pressure;altitude;pressure_sealevel;temperature;humidity
61939;BME280;47897;50.322;18.892;2022-07-26T00:00:31;97676.86;;;20.98;51.83
61939;BME280;47897;50.322;18.892;2022-07-26T00:02:57;97675.98;;;20.98;51.89
61939;BME280;47897;50.322;18.892;2022-07-26T00:05:24;97671.80;;;20.98;51.90
61939;BME280;47897;50.322;18.892;2022-07-26T00:07:51;97668.98;;;20.97;52.02
61939;BME280;47897;50.322;18.892;2022-07-26T00:10:44;97672.94;;;20.95;52.18
61939;BME280;47897;50.322;18.892;2022-07-26T00:13:12;97676.27;;;20.93;52.23
61939;BME280;47897;50.322;18.892;2022-07-26T00:15:39;97674.48;;;20.91;52.35
61939;BME280;47897;50.322;18.892;2022-07-26T00:18:06;97676.85;;;20.89;52.50
61939;BME280;47897;50.322;18.892;2022-07-26T00:20:33;97673.90;;;20.85;52.65
61939;BME280;47897;50.322;18.892;2022-07-26T00:23:01;97675.98;;;20.82;52.76
61939;BME280;47897;50.322;18.892;2022-07-26T00:25:28;97681.45;;;20.79;52.88
61939;BME280;47897;50.322;18.892;2022-07-26T00:27:55;97682.30;;;20.76;53.04
61939;BME280;47897;50.322;18.892;2022-07-26T00:30:24;97682.59;;;20.73;53.06
61939;BME280;47897;50.322;18.892;2022-07-26T00:32:51;97681.16;;;20.70;53.24
61939;BME280;47897;50.322;18.892;2022-07-26T00:35:22;97674.32;;;20.67;53.31
61939;BME280;47897;50.322;18.892;2022-07-26T00:37:49;97672.45;;;20.64;53.50
61939;BME280;47897;50.322;18.892;2022-07-26T00:40:17;97670.25;;;20.59;53.74
61939;BME280;47897;50.322;18.892;2022-07-26T00:42:44;97661.45;;;20.53;53.91
61939;BME280;47897;50.322;18.892;2022-07-26T00:45:12;97653.55;;;20.48;54.06
61939;BME280;47897;50.322;18.892;2022-07-26T00:47:40;97652.81;;;20.44;54.26
61939;BME280;47897;50.322;18.892;2022-07-26T00:50:10;97645.95;;;20.39;54.47
61939;BME280;47897;50.322;18.892;2022-07-26T00:52:39;97637.92;;;20.35;54.52
61939;BME280;47897;50.322;18.892;2022-07-26T00:55:07;97633.52;;;20.32;54.74
61939;BME280;47897;50.322;18.892;2022-07-26T00:57:35;97628.09;;;20.28;54.92
61939;BME280;47897;50.322;18.892;2022-07-26T01:00:08;97626.84;;;20.25;54.97
61939;BME280;47897;50.322;18.892;2022-07-26T01:02:35;97624.03;;;20.22;54.97
61939;BME280;47897;50.322;18.892;2022-07-26T01:05:02;97615.90;;;20.19;55.37
61939;BME280;47897;50.322;18.892;2022-07-26T01:07:30;97613.36;;;20.16;55.41
61939;BME280;47897;50.322;18.892;2022-07-26T01:09:57;97611.86;;;20.12;55.50
61939;BME280;47897;50.322;18.892;2022-07-26T01:12:24;97613.08;;;20.10;55.64
61939;BME280;47897;50.322;18.892;2022-07-26T01:14:51;97610.46;;;20.07;55.92
61939;BME280;47897;50.322;18.892;2022-07-26T01:17:18;97605.87;;;20.04;56.02
61939;BME280;47897;50.322;18.892;2022-07-26T01:19:45;97601.37;;;20.02;56.15
61939;BME280;47897;50.322;18.892;2022-07-26T01:22:12;97600.09;;;19.99;56.19
61939;BME280;47897;50.322;18.892;2022-07-26T01:24:39;97600.20;;;19.98;56.16
61939;BME280;47897;50.322;18.892;2022-07-26T01:27:06;97604.48;;;19.97;56.23
61939;BME280;47897;50.322;18.892;2022-07-26T01:29:33;97603.00;;;19.95;56.33
61939;BME280;47897;50.322;18.892;2022-07-26T01:32:00;97597.56;;;19.94;56.47
61939;BME280;47897;50.322;18.892;2022-07-26T01:34:29;97594.70;;;19.92;56.58
61939;BME280;47897;50.322;18.892;2022-07-26T01:36:56;97597.23;;;19.91;56.77
61939;BME280;47897;50.322;18.892;2022-07-26T01:39:24;97595.94;;;19.89;56.97
61939;BME280;47897;50.322;18.892;2022-07-26T01:41:52;97594.77;;;19.86;57.03
61939;BME280;47897;50.322;18.892;2022-07-26T01:44:19;97592.29;;;19.83;57.08
61939;BME280;47897;50.322;18.892;2022-07-26T01:46:46;97588.20;;;19.82;57.05
61939;BME280;47897;50.322;18.892;2022-07-26T01:49:13;97585.75;;;19.81;57.03
61939;BME280;47897;50.322;18.892;2022-07-26T01:51:40;97588.67;;;19.80;57.09
61939;BME280;47897;50.322;18.892;2022-07-26T01:54:07;97585.05;;;19.80;57.28
61939;BME280;47897;50.322;18.892;2022-07-26T01:56:34;97580.07;;;19.79;57.25
61939;BME280;47897;50.322;18.892;2022-07-26T01:59:01;97578.80;;;19.78;57.47
61939;BME280;47897;50.322;18.892;2022-07-26T02:01:28;97578.04;;;19.77;57.52
61939;BME280;47897;50.322;18.892;2022-07-26T02:03:55;97577.59;;;19.76;57.53
61939;BME280;47897;50.322;18.892;2022-07-26T02:06:22;97575.30;;;19.75;57.68
61939;BME280;47897;50.322;18.892;2022-07-26T02:08:49;97573.16;;;19.74;57.75
61939;BME280;47897;50.322;18.892;2022-07-26T02:11:16;97571.77;;;19.72;57.94
61939;BME280;47897;50.322;18.892;2022-07-26T02:13:43;97570.55;;;19.70;58.10
61939;BME280;47897;50.322;18.892;2022-07-26T02:16:12;97565.86;;;19.68;58.07
61939;BME280;47897;50.322;18.892;2022-07-26T02:18:40;97564.63;;;19.67;58.65
61939;BME280;47897;50.322;18.892;2022-07-26T02:21:08;97562.77;;;19.55;61.08
61939;BME280;47897;50.322;18.892;2022-07-26T02:23:35;97562.95;;;19.37;61.46
61939;BME280;47897;50.322;18.892;2022-07-26T02:26:02;97560.77;;;19.23;62.05
61939;BME280;47897;50.322;18.892;2022-07-26T02:28:29;97560.48;;;19.09;62.93
61939;BME280;47897;50.322;18.892;2022-07-26T02:30:56;97559.90;;;18.94;64.01
61939;BME280;47897;50.322;18.892;2022-07-26T02:33:23;97555.23;;;18.77;64.47
61939;BME280;47897;50.322;18.892;2022-07-26T02:35:50;97552.38;;;18.63;65.10
61939;BME280;47897;50.322;18.892;2022-07-26T02:38:17;97543.09;;;18.54;65.38
61939;BME280;47897;50.322;18.892;2022-07-26T02:40:44;97543.41;;;18.47;66.13
61939;BME280;47897;50.322;18.892;2022-07-26T02:43:11;97540.41;;;18.40;66.74
61939;BME280;47897;50.322;18.892;2022-07-26T02:45:38;97537.92;;;18.32;67.31
61939;BME280;47897;50.322;18.892;2022-07-26T02:48:06;97540.48;;;18.26;67.28
61939;BME280;47897;50.322;18.892;2022-07-26T02:50:33;97536.27;;;18.23;67.29
61939;BME280;47897;50.322;18.892;2022-07-26T02:53:00;97537.15;;;18.23;67.35
61939;BME280;47897;50.322;18.892;2022-07-26T02:55:27;97529.52;;;18.25;67.44
61939;BME280;47897;50.322;18.892;2022-07-26T02:57:54;97527.21;;;18.29;67.40
61939;BME280;47897;50.322;18.892;2022-07-26T03:00:23;97529.77;;;18.32;67.83
61939;BME280;47897;50.322;18.892;2022-07-26T03:02:50;97527.89;;;18.33;68.09
61939;BME280;47897;50.322;18.892;2022-07-26T03:05:18;97526.02;;;18.29;68.26
61939;BME280;47897;50.322;18.892;2022-07-26T03:07:46;97526.52;;;18.20;68.42
61939;BME280;47897;50.322;18.892;2022-07-26T03:10:13;97527.29;;;18.14;68.45
61939;BME280;47897;50.322;18.892;2022-07-26T03:12:41;97522.20;;;18.10;68.71
61939;BME280;47897;50.322;18.892;2022-07-26T03:15:08;97528.77;;;18.06;69.29
61939;BME280;47897;50.322;18.892;2022-07-26T03:17:35;97531.52;;;18.01;69.69
61939;BME280;47897;50.322;18.892;2022-07-26T03:20:03;97531.86;;;17.97;70.21
61939;BME280;47897;50.322;18.892;2022-07-26T03:22:30;97531.58;;;17.94;70.62
61939;BME280;47897;50.322;18.892;2022-07-26T03:24:57;97531.54;;;17.92;70.55
61939;BME280;47897;50.322;18.892;2022-07-26T03:27:24;97529.45;;;17.95;70.21
61939;BME280;47897;50.322;18.892;2022-07-26T03:29:51;97534.73;;;18.01;70.23
61939;BME280;47897;50.322;18.892;2022-07-26T03:32:18;97535.07;;;18.06;70.03
61939;BME280;47897;50.322;18.892;2022-07-26T03:34:45;97534.35;;;18.08;70.03
61939;BME280;47897;50.322;18.892;2022-07-26T03:37:12;97528.06;;;18.10;69.65
61939;BME280;47897;50.322;18.892;2022-07-26T03:39:39;97527.25;;;18.15;69.52
61939;BME280;47897;50.322;18.892;2022-07-26T03:42:06;97526.61;;;18.20;69.53
61939;BME280;47897;50.322;18.892;2022-07-26T03:44:33;97521.75;;;18.26;69.23
61939;BME280;47897;50.322;18.892;2022-07-26T03:47:00;97521.38;;;18.30;69.43
61939;BME280;47897;50.322;18.892;2022-07-26T03:49:27;97518.77;;;18.33;69.38
61939;BME280;47897;50.322;18.892;2022-07-26T03:51:54;97515.89;;;18.37;68.81
61939;BME280;47897;50.322;18.892;2022-07-26T03:54:21;97515.55;;;18.42;69.30
61939;BME280;47897;50.322;18.892;2022-07-26T03:56:48;97515.67;;;18.48;70.32
61939;BME280;47897;50.322;18.892;2022-07-26T03:59:15;97513.35;;;18.48;71.36
61939;BME280;47897;50.322;18.892;2022-07-26T04:01:45;97508.59;;;18.45;71.85
61939;BME280;47897;50.322;18.892;2022-07-26T04:04:14;97509.17;;;18.44;71.58
61939;BME280;47897;50.322;18.892;2022-07-26T04:06:41;97507.77;;;18.45;71.47
61939;BME280;47897;50.322;18.892;2022-07-26T04:09:08;97510.92;;;18.47;71.39
61939;BME280;47897;50.322;18.892;2022-07-26T04:11:35;97510.88;;;18.51;71.30
61939;BME280;47897;50.322;18.892;2022-07-26T04:14:02;97509.13;;;18.56;71.29
61939;BME280;47897;50.322;18.892;2022-07-26T04:16:29;97505.45;;;18.59;71.58
61939;BME280;47897;50.322;18.892;2022-07-26T04:18:56;97502.74;;;18.62;71.62
61939;BME280;47897;50.322;18.892;2022-07-26T04:21:24;97503.10;;;18.67;71.55
61939;BME280;47897;50.322;18.892;2022-07-26T04:23:51;97500.17;;;18.72;72.07
61939;BME280;47897;50.322;18.892;2022-07-26T04:26:19;97498.83;;;18.78;69.97
61939;BME280;47897;50.322;18.892;2022-07-26T04:28:47;97504.05;;;18.88;70.78
61939;BME280;47897;50.322;18.892;2022-07-26T04:31:14;97508.00;;;18.97;70.89
61939;BME280;47897;50.322;18.892;2022-07-26T04:33:41;97511.71;;;19.06;71.49
61939;BME280;47897;50.322;18.892;2022-07-26T04:36:08;97511.77;;;19.13;71.75
61939;BME280;47897;50.322;18.892;2022-07-26T04:38:35;97516.19;;;19.20;71.75
61939;BME280;47897;50.322;18.892;2022-07-26T04:41:02;97514.64;;;19.27;72.07
61939;BME280;47897;50.322;18.892;2022-07-26T04:43:29;97520.41;;;19.37;72.94
61939;BME280;47897;50.322;18.892;2022-07-26T04:45:57;97530.37;;;19.46;73.06
61939;BME280;47897;50.322;18.892;2022-07-26T04:48:24;97541.45;;;19.54;72.53
61939;BME280;47897;50.322;18.892;2022-07-26T04:50:52;97556.56;;;19.61;71.43
61939;BME280;47897;50.322;18.892;2022-07-26T04:53:19;97578.67;;;19.71;72.10
61939;BME280;47897;50.322;18.892;2022-07-26T04:55:46;97631.91;;;19.83;71.02
61939;BME280;47897;50.322;18.892;2022-07-26T04:58:13;97613.56;;;20.00;67.58
61939;BME280;47897;50.322;18.892;2022-07-26T05:00:40;97598.00;;;20.09;66.69
61939;BME280;47897;50.322;18.892;2022-07-26T05:03:07;97634.31;;;20.18;65.93
61939;BME280;47897;50.322;18.892;2022-07-26T05:05:34;97619.30;;;20.25;65.31
61939;BME280;47897;50.322;18.892;2022-07-26T05:08:01;97613.45;;;20.31;64.75
61939;BME280;47897;50.322;18.892;2022-07-26T05:10:32;97608.92;;;20.37;64.71
61939;BME280;47897;50.322;18.892;2022-07-26T05:13:02;97605.52;;;20.44;64.53
61939;BME280;47897;50.322;18.892;2022-07-26T05:15:31;97607.84;;;20.51;64.05
61939;BME280;47897;50.322;18.892;2022-07-26T05:18:06;97623.05;;;20.63;63.25
61939;BME280;47897;50.322;18.892;2022-07-26T05:20:34;97621.42;;;20.77;62.76
61939;BME280;47897;50.322;18.892;2022-07-26T05:23:02;97627.19;;;20.88;62.85
61939;BME280;47897;50.322;18.892;2022-07-26T05:25:29;97620.32;;;20.97;62.89
61939;BME280;47897;50.322;18.892;2022-07-26T05:27:56;97621.48;;;21.05;62.96
61939;BME280;47897;50.322;18.892;2022-07-26T05:30:23;97635.46;;;21.15;62.13
61939;BME280;47897;50.322;18.892;2022-07-26T05:32:50;97625.85;;;21.22;62.31
61939;BME280;47897;50.322;18.892;2022-07-26T05:35:17;97624.59;;;21.26;61.96
61939;BME280;47897;50.322;18.892;2022-07-26T05:37:44;97639.90;;;21.31;61.36
61939;BME280;47897;50.322;18.892;2022-07-26T05:40:11;97644.27;;;21.33;61.36
61939;BME280;47897;50.322;18.892;2022-07-26T05:42:39;97642.98;;;21.35;61.06
61939;BME280;47897;50.322;18.892;2022-07-26T05:45:07;97646.06;;;21.36;61.44
61939;BME280;47897;50.322;18.892;2022-07-26T05:47:34;97640.10;;;21.37;61.39
61939;BME280;47897;50.322;18.892;2022-07-26T05:50:01;97641.17;;;21.37;61.29
61939;BME280;47897;50.322;18.892;2022-07-26T05:52:29;97644.27;;;21.37;61.16
61939;BME280;47897;50.322;18.892;2022-07-26T05:54:56;97650.33;;;21.37;61.34
61939;BME280;47897;50.322;18.892;2022-07-26T05:57:24;97655.59;;;21.41;61.42
61939;BME280;47897;50.322;18.892;2022-07-26T05:59:52;97659.56;;;21.45;61.74
61939;BME280;47897;50.322;18.892;2022-07-26T06:02:19;97661.49;;;21.51;61.79
61939;BME280;47897;50.322;18.892;2022-07-26T06:04:46;97668.23;;;21.58;61.70
61939;BME280;47897;50.322;18.892;2022-07-26T06:07:13;97671.71;;;21.64;61.93
61939;BME280;47897;50.322;18.892;2022-07-26T06:09:41;97671.71;;;21.69;62.92
61939;BME280;47897;50.322;18.892;2022-07-26T06:12:08;97674.52;;;21.73;64.33
61939;BME280;47897;50.322;18.892;2022-07-26T06:14:35;97683.20;;;21.73;65.29
61939;BME280;47897;50.322;18.892;2022-07-26T06:17:02;97686.85;;;21.70;66.30
61939;BME280;47897;50.322;18.892;2022-07-26T06:19:32;97698.56;;;21.69;67.06
61939;BME280;47897;50.322;18.892;2022-07-26T06:21:59;97705.30;;;21.71;67.97
61939;BME280;47897;50.322;18.892;2022-07-26T06:24:26;97703.86;;;21.69;68.79
61939;BME280;47897;50.322;18.892;2022-07-26T06:26:53;97704.00;;;21.68;69.57
61939;BME280;47897;50.322;18.892;2022-07-26T06:29:21;97710.56;;;21.68;70.42
61939;BME280;47897;50.322;18.892;2022-07-26T06:31:49;97721.09;;;21.70;70.83
61939;BME280;47897;50.322;18.892;2022-07-26T06:34:16;97730.80;;;21.72;71.57
61939;BME280;47897;50.322;18.892;2022-07-26T06:36:44;97745.79;;;21.64;70.87
61939;BME280;47897;50.322;18.892;2022-07-26T06:39:11;97748.19;;;21.41;71.10
61939;BME280;47897;50.322;18.892;2022-07-26T06:41:38;97752.08;;;21.24;71.88
61939;BME280;47897;50.322;18.892;2022-07-26T06:44:05;97755.14;;;21.14;72.29
61939;BME280;47897;50.322;18.892;2022-07-26T06:46:32;97762.09;;;20.97;72.78
61939;BME280;47897;50.322;18.892;2022-07-26T06:48:59;97770.41;;;20.83;73.79
61939;BME280;47897;50.322;18.892;2022-07-26T06:51:26;97764.29;;;20.74;74.39
61939;BME280;47897;50.322;18.892;2022-07-26T06:53:54;97767.10;;;20.69;74.60
61939;BME280;47897;50.322;18.892;2022-07-26T06:56:21;97768.59;;;20.59;75.53
61939;BME280;47897;50.322;18.892;2022-07-26T06:58:48;97775.96;;;20.49;76.22
61939;BME280;47897;50.322;18.892;2022-07-26T07:01:15;97779.14;;;20.41;76.92
61939;BME280;47897;50.322;18.892;2022-07-26T07:03:42;97780.11;;;20.38;77.29
61939;BME280;47897;50.322;18.892;2022-07-26T07:06:09;97782.95;;;20.34;77.70
61939;BME280;47897;50.322;18.892;2022-07-26T07:08:36;97789.27;;;20.28;78.35
61939;BME280;47897;50.322;18.892;2022-07-26T07:11:03;97794.65;;;20.20;79.15
61939;BME280;47897;50.322;18.892;2022-07-26T07:13:30;97806.77;;;20.16;79.50
61939;BME280;47897;50.322;18.892;2022-07-26T07:15:57;97806.45;;;20.11;80.31
61939;BME280;47897;50.322;18.892;2022-07-26T07:18:23;97810.78;;;20.08;80.45
61939;BME280;47897;50.322;18.892;2022-07-26T07:20:50;97818.48;;;20.05;80.75
61939;BME280;47897;50.322;18.892;2022-07-26T07:23:17;97824.67;;;20.02;81.43
61939;BME280;47897;50.322;18.892;2022-07-26T07:25:48;97836.13;;;19.92;82.18
61939;BME280;47897;50.322;18.892;2022-07-26T07:28:15;97848.61;;;19.82;82.52
61939;BME280;47897;50.322;18.892;2022-07-26T07:30:42;97856.88;;;19.69;84.22
61939;BME280;47897;50.322;18.892;2022-07-26T07:33:10;97858.96;;;19.58;85.99
61939;BME280;47897;50.322;18.892;2022-07-26T07:35:40;97860.55;;;19.50;87.44
61939;BME280;47897;50.322;18.892;2022-07-26T07:38:08;97857.02;;;19.42;87.90
61939;BME280;47897;50.322;18.892;2022-07-26T07:40:35;97855.60;;;19.36;89.46
61939;BME280;47897;50.322;18.892;2022-07-26T07:43:02;97852.95;;;19.30;89.78
61939;BME280;47897;50.322;18.892;2022-07-26T07:45:29;97850.62;;;19.25;89.84
61939;BME280;47897;50.322;18.892;2022-07-26T07:47:56;97856.74;;;19.20;90.85
61939;BME280;47897;50.322;18.892;2022-07-26T07:50:23;97850.73;;;19.14;91.51
61939;BME280;47897;50.322;18.892;2022-07-26T07:52:50;97843.73;;;19.08;91.34
61939;BME280;47897;50.322;18.892;2022-07-26T07:55:17;97838.42;;;19.04;91.93
61939;BME280;47897;50.322;18.892;2022-07-26T07:57:44;97843.36;;;19.01;92.94
61939;BME280;47897;50.322;18.892;2022-07-26T08:00:11;97852.84;;;18.95;93.27
61939;BME280;47897;50.322;18.892;2022-07-26T08:02:41;97872.01;;;18.92;94.18
61939;BME280;47897;50.322;18.892;2022-07-26T08:05:08;97878.79;;;18.92;93.92
61939;BME280;47897;50.322;18.892;2022-07-26T08:07:35;97885.48;;;18.92;94.49
61939;BME280;47897;50.322;18.892;2022-07-26T08:10:03;97885.60;;;18.94;94.78
61939;BME280;47897;50.322;18.892;2022-07-26T08:12:30;97887.02;;;18.95;94.78
61939;BME280;47897;50.322;18.892;2022-07-26T08:14:57;97889.33;;;18.97;95.08
61939;BME280;47897;50.322;18.892;2022-07-26T08:17:24;97888.70;;;18.96;95.00
61939;BME280;47897;50.322;18.892;2022-07-26T08:19:51;97894.10;;;18.99;95.81
61939;BME280;47897;50.322;18.892;2022-07-26T08:22:18;97891.60;;;18.98;94.88
61939;BME280;47897;50.322;18.892;2022-07-26T08:24:45;97896.50;;;19.00;95.09
61939;BME280;47897;50.322;18.892;2022-07-26T08:27:13;97896.19;;;19.00;95.90
61939;BME280;47897;50.322;18.892;2022-07-26T08:29:40;97893.89;;;18.98;95.73
61939;BME280;47897;50.322;18.892;2022-07-26T08:32:06;97894.27;;;18.98;96.83
61939;BME280;47897;50.322;18.892;2022-07-26T08:34:34;97900.81;;;18.96;96.12
61939;BME280;47897;50.322;18.892;2022-07-26T08:37:01;97906.56;;;18.96;96.21
61939;BME280;47897;50.322;18.892;2022-07-26T08:39:27;97903.90;;;18.96;96.76
61939;BME280;47897;50.322;18.892;2022-07-26T08:41:55;97899.39;;;18.95;97.13
61939;BME280;47897;50.322;18.892;2022-07-26T08:44:21;97900.28;;;18.92;97.25
61939;BME280;47897;50.322;18.892;2022-07-26T08:46:49;97903.36;;;18.92;97.26
61939;BME280;47897;50.322;18.892;2022-07-26T08:49:16;97899.11;;;18.94;97.37
61939;BME280;47897;50.322;18.892;2022-07-26T08:51:43;97900.02;;;18.95;97.60
61939;BME280;47897;50.322;18.892;2022-07-26T08:54:12;97898.20;;;18.95;97.10
61939;BME280;47897;50.322;18.892;2022-07-26T08:56:43;97892.20;;;18.95;97.86
61939;BME280;47897;50.322;18.892;2022-07-26T08:59:16;97892.79;;;18.94;98.44
61939;BME280;47897;50.322;18.892;2022-07-26T09:02:00;97886.11;;;18.93;98.60
61939;BME280;47897;50.322;18.892;2022-07-26T09:04:31;97893.38;;;18.91;98.73
61939;BME280;47897;50.322;18.892;2022-07-26T09:07:03;97901.70;;;18.90;98.78
61939;BME280;47897;50.322;18.892;2022-07-26T09:09:33;97903.38;;;18.91;97.98
61939;BME280;47897;50.322;18.892;2022-07-26T09:12:17;97903.59;;;18.92;97.09
61939;BME280;47897;50.322;18.892;2022-07-26T09:14:45;97914.59;;;18.97;97.15
61939;BME280;47897;50.322;18.892;2022-07-26T09:17:14;97920.13;;;19.01;97.00
61939;BME280;47897;50.322;18.892;2022-07-26T09:19:42;97925.21;;;19.04;96.84
61939;BME280;47897;50.322;18.892;2022-07-26T09:22:12;97930.33;;;19.03;97.29
61939;BME280;47897;50.322;18.892;2022-07-26T09:24:42;97933.55;;;19.03;96.83
61939;BME280;47897;50.322;18.892;2022-07-26T09:27:12;97942.57;;;19.02;97.12
61939;BME280;47897;50.322;18.892;2022-07-26T09:29:48;97946.46;;;18.98;96.85
61939;BME280;47897;50.322;18.892;2022-07-26T09:32:24;97956.71;;;18.96;96.53
61939;BME280;47897;50.322;18.892;2022-07-26T09:34:53;97965.45;;;18.99;97.60
61939;BME280;47897;50.322;18.892;2022-07-26T09:37:35;97969.71;;;18.99;97.45
61939;BME280;47897;50.322;18.892;2022-07-26T09:40:05;97974.80;;;18.99;97.80
61939;BME280;47897;50.322;18.892;2022-07-26T09:42:33;97983.18;;;19.00;97.09
61939;BME280;47897;50.322;18.892;2022-07-26T09:45:01;97987.75;;;19.01;97.61
61939;BME280;47897;50.322;18.892;2022-07-26T09:47:37;97991.65;;;19.01;97.48
61939;BME280;47897;50.322;18.892;2022-07-26T09:50:15;97992.42;;;18.99;97.23
61939;BME280;47897;50.322;18.892;2022-07-26T09:53:08;98000.92;;;18.96;98.17
61939;BME280;47897;50.322;18.892;2022-07-26T09:55:53;98002.38;;;18.93;98.67
61939;BME280;47897;50.322;18.892;2022-07-26T09:58:21;98010.86;;;18.93;98.31
61939;BME280;47897;50.322;18.892;2022-07-26T10:00:49;98012.48;;;18.93;98.77
61939;BME280;47897;50.322;18.892;2022-07-26T10:03:16;98013.52;;;18.93;98.09
61939;BME280;47897;50.322;18.892;2022-07-26T10:05:43;98014.33;;;18.93;98.51
61939;BME280;47897;50.322;18.892;2022-07-26T10:08:11;98013.38;;;18.92;97.94
61939;BME280;47897;50.322;18.892;2022-07-26T10:10:44;98017.11;;;18.92;97.86
61939;BME280;47897;50.322;18.892;2022-07-26T10:13:13;98021.66;;;18.91;97.90
61939;BME280;47897;50.322;18.892;2022-07-26T10:15:45;98027.55;;;18.88;97.66
61939;BME280;47897;50.322;18.892;2022-07-26T10:21:26;98034.38;;;18.81;98.79
61939;BME280;47897;50.322;18.892;2022-07-26T10:31:46;98043.52;;;18.52;97.64
61939;BME280;47897;50.322;18.892;2022-07-26T10:34:33;98040.04;;;18.46;97.73
61939;BME280;47897;50.322;18.892;2022-07-26T10:37:20;98043.92;;;18.42;98.25
61939;BME280;47897;50.322;18.892;2022-07-26T10:39:47;98043.70;;;18.38;98.29
61939;BME280;47897;50.322;18.892;2022-07-26T10:42:14;98045.25;;;18.35;98.47
61939;BME280;47897;50.322;18.892;2022-07-26T10:44:42;98047.99;;;18.31;98.76
61939;BME280;47897;50.322;18.892;2022-07-26T10:47:13;98049.92;;;18.28;99.06
61939;BME280;47897;50.322;18.892;2022-07-26T10:50:02;98050.71;;;18.25;98.76
61939;BME280;47897;50.322;18.892;2022-07-26T10:52:31;98055.06;;;18.23;99.23
61939;BME280;47897;50.322;18.892;2022-07-26T10:57:39;98055.77;;;18.21;98.44
61939;BME280;47897;50.322;18.892;2022-07-26T11:00:22;98060.31;;;18.20;99.31
61939;BME280;47897;50.322;18.892;2022-07-26T11:02:57;98061.39;;;18.18;99.22
61939;BME280;47897;50.322;18.892;2022-07-26T11:05:31;98059.23;;;18.14;99.35
61939;BME280;47897;50.322;18.892;2022-07-26T11:08:06;98060.90;;;18.11;98.96
61939;BME280;47897;50.322;18.892;2022-07-26T11:10:44;98062.82;;;18.09;99.28
61939;BME280;47897;50.322;18.892;2022-07-26T11:13:19;98058.39;;;18.06;99.24
61939;BME280;47897;50.322;18.892;2022-07-26T11:15:50;98060.20;;;18.01;98.67
61939;BME280;47897;50.322;18.892;2022-07-26T11:18:20;98076.61;;;18.02;99.39
61939;BME280;47897;50.322;18.892;2022-07-26T11:20:50;98078.15;;;17.99;99.39
61939;BME280;47897;50.322;18.892;2022-07-26T11:26:06;98079.58;;;17.93;99.27
61939;BME280;47897;50.322;18.892;2022-07-26T11:29:01;98078.30;;;17.92;99.61
61939;BME280;47897;50.322;18.892;2022-07-26T11:31:37;98073.44;;;17.94;99.49
61939;BME280;47897;50.322;18.892;2022-07-26T11:34:06;98070.37;;;17.96;99.86
61939;BME280;47897;50.322;18.892;2022-07-26T11:36:42;98066.12;;;18.00;99.89
61939;BME280;47897;50.322;18.892;2022-07-26T11:39:23;98065.38;;;18.00;99.98
61939;BME280;47897;50.322;18.892;2022-07-26T11:42:02;98060.55;;;18.03;100.00
61939;BME280;47897;50.322;18.892;2022-07-26T11:44:31;98056.56;;;18.04;99.98
61939;BME280;47897;50.322;18.892;2022-07-26T11:46:59;98054.83;;;18.06;100.00
61939;BME280;47897;50.322;18.892;2022-07-26T11:49:28;98051.80;;;18.08;99.96
61939;BME280;47897;50.322;18.892;2022-07-26T11:51:58;98056.16;;;18.11;99.68
61939;BME280;47897;50.322;18.892;2022-07-26T11:54:31;98052.41;;;18.16;99.97
61939;BME280;47897;50.322;18.892;2022-07-26T11:57:03;98054.04;;;18.18;99.99
61939;BME280;47897;50.322;18.892;2022-07-26T11:59:34;98051.80;;;18.18;99.21
61939;BME280;47897;50.322;18.892;2022-07-26T12:02:02;98053.95;;;18.16;98.47
61939;BME280;47897;50.322;18.892;2022-07-26T12:04:33;98053.33;;;18.11;98.08
61939;BME280;47897;50.322;18.892;2022-07-26T12:07:01;98059.91;;;18.09;97.41
61939;BME280;47897;50.322;18.892;2022-07-26T12:12:03;98069.83;;;18.10;97.90
61939;BME280;47897;50.322;18.892;2022-07-26T12:14:40;98072.32;;;18.07;97.11
61939;BME280;47897;50.322;18.892;2022-07-26T12:17:12;98077.48;;;18.03;96.23
61939;BME280;47897;50.322;18.892;2022-07-26T12:19:40;98076.66;;;18.04;96.97
61939;BME280;47897;50.322;18.892;2022-07-26T12:22:11;98080.89;;;18.03;96.14
61939;BME280;47897;50.322;18.892;2022-07-26T12:29:41;98086.33;;;17.94;94.67
61939;BME280;47897;50.322;18.892;2022-07-26T12:32:18;98088.57;;;17.91;94.14
61939;BME280;47897;50.322;18.892;2022-07-26T12:35:00;98086.45;;;17.88;93.78
61939;BME280;47897;50.322;18.892;2022-07-26T12:37:29;98085.95;;;17.86;92.92
61939;BME280;47897;50.322;18.892;2022-07-26T12:40:01;98088.33;;;17.84;92.91
61939;BME280;47897;50.322;18.892;2022-07-26T12:42:32;98091.61;;;17.82;93.00
61939;BME280;47897;50.322;18.892;2022-07-26T12:45:01;98093.66;;;17.81;93.71
61939;BME280;47897;50.322;18.892;2022-07-26T12:47:28;98093.19;;;17.80;93.27
61939;BME280;47897;50.322;18.892;2022-07-26T12:49:55;98091.08;;;17.80;93.37
61939;BME280;47897;50.322;18.892;2022-07-26T12:52:23;98092.66;;;17.85;94.47
61939;BME280;47897;50.322;18.892;2022-07-26T12:54:51;98093.05;;;17.89;94.50
61939;BME280;47897;50.322;18.892;2022-07-26T12:57:19;98090.45;;;17.90;94.64
61939;BME280;47897;50.322;18.892;2022-07-26T12:59:47;98091.09;;;17.94;95.37
61939;BME280;47897;50.322;18.892;2022-07-26T13:02:18;98093.61;;;17.96;96.09
61939;BME280;47897;50.322;18.892;2022-07-26T13:04:46;98093.81;;;17.97;95.52
61939;BME280;47897;50.322;18.892;2022-07-26T13:07:14;98087.26;;;18.00;95.42
61939;BME280;47897;50.322;18.892;2022-07-26T13:09:43;98086.39;;;17.98;95.12
61939;BME280;47897;50.322;18.892;2022-07-26T13:12:12;98087.11;;;17.98;95.00
61939;BME280;47897;50.322;18.892;2022-07-26T13:14:39;98085.32;;;17.99;96.25
61939;BME280;47897;50.322;18.892;2022-07-26T13:17:08;98087.45;;;18.01;96.26
61939;BME280;47897;50.322;18.892;2022-07-26T13:19:36;98090.44;;;18.04;96.97
61939;BME280;47897;50.322;18.892;2022-07-26T13:22:05;98090.30;;;18.03;95.76